sensor_id;sensor_type;location;lat;lon;timestamp;P1;durP1;ratioP1;P2;durP2;ratioP2
48088;SDS011;33867;50.314;7.802;2022-08-19T06:02:04;1.05;;;0.90;;
48088;SDS011;33867;50.314;7.802;2022-08-19T06:05:24;0.60;;;0.60;;
48088;SDS011;33867;50.314;7.802;2022-08-19T06:08:43;0.45;;;0.30;;
48088;SDS011;33867;50.314;7.802;2022-08-19T06:12:09;0.95;;;0.88;;
48088;SDS011;33867;50.314;7.802;2022-08-19T06:29:46;0.60;;;0.60;;
48088;SDS011;33867;50.314;7.802;2022-08-19T08:50:18;1.67;;;1.58;;
48088;SDS011;33867;50.314;7.802;2022-08-19T10:06:23;1.20;;;0.93;;
48088;SDS011;33867;50.314;7.802;2022-08-19T10:09:44;2.10;;;1.35;;
48088;SDS011;33867;50.314;7.802;2022-08-19T10:13:04;1.23;;;1.00;;
48088;SDS011;33867;50.314;7.802;2022-08-19T10:16:23;1.67;;;1.45;;
48088;SDS011;33867;50.314;7.802;2022-08-19T10:19:44;3.13;;;2.08;;
48088;SDS011;33867;50.314;7.802;2022-08-19T10:23:03;1.45;;;1.15;;
48088;SDS011;33867;50.314;7.802;2022-08-19T10:26:24;4.43;;;1.15;;
48088;SDS011;33867;50.314;7.802;2022-08-19T10:29:49;1.20;;;1.00;;
48088;SDS011;33867;50.314;7.802;2022-08-19T10:33:08;1.77;;;1.15;;
48088;SDS011;33867;50.314;7.802;2022-08-19T10:36:31;1.00;;;0.90;;
48088;SDS011;33867;50.314;7.802;2022-08-19T10:39:54;1.50;;;1.13;;
48088;SDS011;33867;50.314;7.802;2022-08-19T10:43:13;1.50;;;0.82;;
48088;SDS011;33867;50.314;7.802;2022-08-19T10:46:35;1.00;;;0.90;;
48088;SDS011;33867;50.314;7.802;2022-08-19T10:49:59;1.00;;;0.90;;
48088;SDS011;33867;50.314;7.802;2022-08-19T10:53:36;0.73;;;0.70;;
48088;SDS011;33867;50.314;7.802;2022-08-19T10:56:56;1.35;;;1.05;;
48088;SDS011;33867;50.314;7.802;2022-08-19T11:00:15;2.10;;;1.23;;
48088;SDS011;33867;50.314;7.802;2022-08-19T11:03:34;1.88;;;1.00;;
48088;SDS011;33867;50.314;7.802;2022-08-19T11:06:53;0.90;;;0.80;;
48088;SDS011;33867;50.314;7.802;2022-08-19T11:10:14;1.23;;;0.90;;
48088;SDS011;33867;50.314;7.802;2022-08-19T11:13:35;1.10;;;1.00;;
48088;SDS011;33867;50.314;7.802;2022-08-19T11:16:56;0.98;;;0.80;;
48088;SDS011;33867;50.314;7.802;2022-08-19T11:20:15;1.10;;;0.98;;
48088;SDS011;33867;50.314;7.802;2022-08-19T11:23:34;1.20;;;1.02;;
48088;SDS011;33867;50.314;7.802;2022-08-19T11:26:55;0.90;;;0.70;;
48088;SDS011;33867;50.314;7.802;2022-08-19T11:30:21;1.08;;;0.95;;
48088;SDS011;33867;50.314;7.802;2022-08-19T11:33:40;1.10;;;1.00;;
48088;SDS011;33867;50.314;7.802;2022-08-19T11:37:00;1.60;;;1.00;;
48088;SDS011;33867;50.314;7.802;2022-08-19T11:40:20;1.35;;;1.20;;
48088;SDS011;33867;50.314;7.802;2022-08-19T11:43:39;1.23;;;1.10;;
48088;SDS011;33867;50.314;7.802;2022-08-19T11:46:58;1.08;;;0.98;;
48088;SDS011;33867;50.314;7.802;2022-08-19T11:50:19;0.68;;;0.63;;
48088;SDS011;33867;50.314;7.802;2022-08-19T11:53:38;1.50;;;1.17;;
48088;SDS011;33867;50.314;7.802;2022-08-19T11:56:58;1.50;;;0.80;;
48088;SDS011;33867;50.314;7.802;2022-08-19T12:00:17;1.20;;;1.00;;
48088;SDS011;33867;50.314;7.802;2022-08-19T12:03:38;1.20;;;1.02;;
48088;SDS011;33867;50.314;7.802;2022-08-19T12:06:58;1.25;;;1.00;;
48088;SDS011;33867;50.314;7.802;2022-08-19T12:10:17;1.45;;;0.95;;
48088;SDS011;33867;50.314;7.802;2022-08-19T12:13:36;1.27;;;1.17;;
48088;SDS011;33867;50.314;7.802;2022-08-19T12:16:56;1.65;;;1.23;;
48088;SDS011;33867;50.314;7.802;2022-08-19T12:20:15;3.13;;;1.95;;
48088;SDS011;33867;50.314;7.802;2022-08-19T12:23:35;1.45;;;1.20;;
48088;SDS011;33867;50.314;7.802;2022-08-19T12:26:56;1.10;;;0.95;;
48088;SDS011;33867;50.314;7.802;2022-08-19T12:30:15;1.73;;;1.27;;
48088;SDS011;33867;50.314;7.802;2022-08-19T12:33:34;0.88;;;0.80;;
48088;SDS011;33867;50.314;7.802;2022-08-19T12:36:54;1.40;;;0.82;;
48088;SDS011;33867;50.314;7.802;2022-08-19T12:40:14;1.92;;;1.38;;
48088;SDS011;33867;50.314;7.802;2022-08-19T12:43:36;2.08;;;1.60;;
48088;SDS011;33867;50.314;7.802;2022-08-19T12:46:56;1.65;;;1.20;;
48088;SDS011;33867;50.314;7.802;2022-08-19T12:50:16;1.15;;;1.00;;
48088;SDS011;33867;50.314;7.802;2022-08-19T13:00:50;1.20;;;1.00;;
48088;SDS011;33867;50.314;7.802;2022-08-19T13:11:20;1.05;;;0.95;;
48088;SDS011;33867;50.314;7.802;2022-08-19T13:25:36;1.20;;;1.08;;
48088;SDS011;33867;50.314;7.802;2022-08-19T13:28:56;1.83;;;1.25;;
48088;SDS011;33867;50.314;7.802;2022-08-19T13:32:33;2.40;;;1.33;;
48088;SDS011;33867;50.314;7.802;2022-08-19T13:53:28;1.23;;;0.93;;
48088;SDS011;33867;50.314;7.802;2022-08-19T13:56:49;2.30;;;1.42;;
48088;SDS011;33867;50.314;7.802;2022-08-19T14:00:10;1.35;;;1.00;;
48088;SDS011;33867;50.314;7.802;2022-08-19T14:10:53;0.73;;;0.70;;
48088;SDS011;33867;50.314;7.802;2022-08-19T14:14:12;1.33;;;1.10;;
48088;SDS011;33867;50.314;7.802;2022-08-19T14:17:32;1.52;;;1.13;;
48088;SDS011;33867;50.314;7.802;2022-08-19T14:20:53;1.20;;;0.80;;
48088;SDS011;33867;50.314;7.802;2022-08-19T14:27:56;1.00;;;0.80;;
48088;SDS011;33867;50.314;7.802;2022-08-19T14:31:16;1.33;;;0.98;;
48088;SDS011;33867;50.314;7.802;2022-08-19T14:38:16;0.77;;;0.65;;
48088;SDS011;33867;50.314;7.802;2022-08-19T14:41:39;1.10;;;0.88;;
48088;SDS011;33867;50.314;7.802;2022-08-19T14:44:59;1.10;;;1.00;;
48088;SDS011;33867;50.314;7.802;2022-08-19T14:48:19;1.65;;;1.15;;
48088;SDS011;33867;50.314;7.802;2022-08-19T14:51:40;0.63;;;0.60;;
48088;SDS011;33867;50.314;7.802;2022-08-19T14:54:59;1.02;;;0.70;;
48088;SDS011;33867;50.314;7.802;2022-08-19T14:58:19;0.80;;;0.63;;
48088;SDS011;33867;50.314;7.802;2022-08-19T15:01:48;0.80;;;0.80;;
48088;SDS011;33867;50.314;7.802;2022-08-19T15:16:01;0.82;;;0.80;;
48088;SDS011;33867;50.314;7.802;2022-08-19T15:19:20;1.10;;;0.80;;
48088;SDS011;33867;50.314;7.802;2022-08-19T15:22:39;0.95;;;0.63;;
48088;SDS011;33867;50.314;7.802;2022-08-19T15:25:54;0.60;;;0.60;;
48088;SDS011;33867;50.314;7.802;2022-08-19T15:29:14;1.08;;;0.80;;
48088;SDS011;33867;50.314;7.802;2022-08-19T15:32:35;0.50;;;0.50;;
48088;SDS011;33867;50.314;7.802;2022-08-19T15:39:46;1.70;;;0.95;;
48088;SDS011;33867;50.314;7.802;2022-08-19T15:50:14;0.57;;;0.55;;
48088;SDS011;33867;50.314;7.802;2022-08-19T16:00:50;0.90;;;0.85;;
48088;SDS011;33867;50.314;7.802;2022-08-19T16:12:20;0.82;;;0.75;;
48088;SDS011;33867;50.314;7.802;2022-08-19T16:40:48;0.70;;;0.70;;
48088;SDS011;33867;50.314;7.802;2022-08-19T16:47:48;1.10;;;0.90;;
48088;SDS011;33867;50.314;7.802;2022-08-19T16:51:08;1.20;;;0.88;;
48088;SDS011;33867;50.314;7.802;2022-08-19T17:01:31;0.68;;;0.60;;
48088;SDS011;33867;50.314;7.802;2022-08-19T17:04:51;0.82;;;0.65;;
48088;SDS011;33867;50.314;7.802;2022-08-19T17:08:11;0.60;;;0.60;;
48088;SDS011;33867;50.314;7.802;2022-08-19T17:11:30;0.82;;;0.77;;
48088;SDS011;33867;50.314;7.802;2022-08-19T17:22:07;0.47;;;0.47;;
48088;SDS011;33867;50.314;7.802;2022-08-19T17:28:59;0.60;;;0.60;;
48088;SDS011;33867;50.314;7.802;2022-08-19T17:32:18;1.02;;;0.68;;
48088;SDS011;33867;50.314;7.802;2022-08-19T17:35:37;0.52;;;0.52;;
48088;SDS011;33867;50.314;7.802;2022-08-19T17:39:02;0.97;;;0.60;;
48088;SDS011;33867;50.314;7.802;2022-08-19T17:42:22;1.10;;;0.80;;
48088;SDS011;33867;50.314;7.802;2022-08-19T17:45:41;0.90;;;0.73;;
48088;SDS011;33867;50.314;7.802;2022-08-19T17:49:00;0.95;;;0.65;;
48088;SDS011;33867;50.314;7.802;2022-08-19T17:52:20;0.57;;;0.50;;
48088;SDS011;33867;50.314;7.802;2022-08-19T17:55:39;1.92;;;1.23;;
48088;SDS011;33867;50.314;7.802;2022-08-19T17:58:58;1.30;;;1.15;;
48088;SDS011;33867;50.314;7.802;2022-08-19T18:02:18;1.17;;;0.90;;
48088;SDS011;33867;50.314;7.802;2022-08-19T18:05:39;0.93;;;0.85;;
48088;SDS011;33867;50.314;7.802;2022-08-19T18:09:01;1.05;;;0.80;;
48088;SDS011;33867;50.314;7.802;2022-08-19T18:12:23;0.50;;;0.50;;
48088;SDS011;33867;50.314;7.802;2022-08-19T18:15:44;1.50;;;1.00;;
48088;SDS011;33867;50.314;7.802;2022-08-19T18:19:03;1.02;;;0.75;;
48088;SDS011;33867;50.314;7.802;2022-08-19T18:22:24;0.63;;;0.63;;
48088;SDS011;33867;50.314;7.802;2022-08-19T18:25:46;0.47;;;0.45;;
48088;SDS011;33867;50.314;7.802;2022-08-19T18:29:05;0.57;;;0.50;;
48088;SDS011;33867;50.314;7.802;2022-08-19T18:32:25;0.32;;;0.30;;
48088;SDS011;33867;50.314;7.802;2022-08-19T18:35:47;1.42;;;0.77;;
48088;SDS011;33867;50.314;7.802;2022-08-19T18:39:09;1.65;;;0.82;;
48088;SDS011;33867;50.314;7.802;2022-08-19T18:42:47;0.75;;;0.40;;
48088;SDS011;33867;50.314;7.802;2022-08-19T18:46:21;0.40;;;0.40;;
48088;SDS011;33867;50.314;7.802;2022-08-19T18:49:59;0.38;;;0.38;;
48088;SDS011;33867;50.314;7.802;2022-08-19T18:53:26;0.32;;;0.30;;
48088;SDS011;33867;50.314;7.802;2022-08-19T18:56:49;0.30;;;0.30;;
48088;SDS011;33867;50.314;7.802;2022-08-19T19:00:13;0.90;;;0.70;;
48088;SDS011;33867;50.314;7.802;2022-08-19T19:03:32;3.70;;;0.65;;
48088;SDS011;33867;50.314;7.802;2022-08-19T19:06:52;1.05;;;0.60;;
48088;SDS011;33867;50.314;7.802;2022-08-19T19:10:11;0.20;;;0.20;;
48088;SDS011;33867;50.314;7.802;2022-08-19T19:13:31;0.40;;;0.40;;
48088;SDS011;33867;50.314;7.802;2022-08-19T19:16:51;0.38;;;0.38;;
48088;SDS011;33867;50.314;7.802;2022-08-19T19:20:11;0.40;;;0.40;;
48088;SDS011;33867;50.314;7.802;2022-08-19T19:23:30;0.28;;;0.28;;
48088;SDS011;33867;50.314;7.802;2022-08-19T19:26:50;0.28;;;0.28;;
48088;SDS011;33867;50.314;7.802;2022-08-19T19:30:10;0.28;;;0.20;;
48088;SDS011;33867;50.314;7.802;2022-08-19T19:33:31;0.52;;;0.50;;
48088;SDS011;33867;50.314;7.802;2022-08-19T19:36:50;0.32;;;0.28;;
48088;SDS011;33867;50.314;7.802;2022-08-19T19:40:10;0.75;;;0.52;;
48088;SDS011;33867;50.314;7.802;2022-08-19T19:43:29;0.38;;;0.22;;
48088;SDS011;33867;50.314;7.802;2022-08-19T19:46:49;0.57;;;0.57;;
48088;SDS011;33867;50.314;7.802;2022-08-19T19:50:08;0.57;;;0.43;;
48088;SDS011;33867;50.314;7.802;2022-08-19T19:53:27;0.20;;;0.20;;
48088;SDS011;33867;50.314;7.802;2022-08-19T19:56:47;0.57;;;0.50;;
48088;SDS011;33867;50.314;7.802;2022-08-19T20:00:08;1.88;;;0.30;;
48088;SDS011;33867;50.314;7.802;2022-08-19T20:03:28;0.32;;;0.20;;
48088;SDS011;33867;50.314;7.802;2022-08-19T20:06:48;0.70;;;0.40;;
48088;SDS011;33867;50.314;7.802;2022-08-19T20:10:08;0.05;;;0.05;;
48088;SDS011;33867;50.314;7.802;2022-08-19T20:13:28;0.32;;;0.28;;
48088;SDS011;33867;50.314;7.802;2022-08-19T20:16:48;0.65;;;0.30;;
48088;SDS011;33867;50.314;7.802;2022-08-19T20:20:10;1.85;;;0.50;;
48088;SDS011;33867;50.314;7.802;2022-08-19T20:23:31;0.10;;;0.10;;
48088;SDS011;33867;50.314;7.802;2022-08-19T20:26:51;0.20;;;0.20;;
48088;SDS011;33867;50.314;7.802;2022-08-19T20:30:12;0.63;;;0.40;;
48088;SDS011;33867;50.314;7.802;2022-08-19T20:33:34;0.47;;;0.30;;
48088;SDS011;33867;50.314;7.802;2022-08-19T20:36:53;0.60;;;0.40;;
48088;SDS011;33867;50.314;7.802;2022-08-19T20:40:12;0.30;;;0.20;;
48088;SDS011;33867;50.314;7.802;2022-08-19T20:43:32;0.22;;;0.22;;
48088;SDS011;33867;50.314;7.802;2022-08-19T20:46:52;0.80;;;0.30;;
48088;SDS011;33867;50.314;7.802;2022-08-19T20:50:11;0.40;;;0.30;;
48088;SDS011;33867;50.314;7.802;2022-08-19T20:53:31;0.30;;;0.30;;
48088;SDS011;33867;50.314;7.802;2022-08-19T20:56:50;0.30;;;0.30;;
48088;SDS011;33867;50.314;7.802;2022-08-19T21:00:10;0.30;;;0.25;;
48088;SDS011;33867;50.314;7.802;2022-08-19T21:03:33;0.20;;;0.20;;
48088;SDS011;33867;50.314;7.802;2022-08-19T21:06:54;0.30;;;0.30;;
48088;SDS011;33867;50.314;7.802;2022-08-19T21:10:13;0.10;;;0.10;;
48088;SDS011;33867;50.314;7.802;2022-08-19T21:13:33;0.10;;;0.10;;
48088;SDS011;33867;50.314;7.802;2022-08-19T21:16:52;0.32;;;0.25;;
48088;SDS011;33867;50.314;7.802;2022-08-19T21:20:12;0.15;;;0.10;;
48088;SDS011;33867;50.314;7.802;2022-08-19T21:23:31;0.47;;;0.43;;
48088;SDS011;33867;50.314;7.802;2022-08-19T21:26:50;0.20;;;0.20;;
48088;SDS011;33867;50.314;7.802;2022-08-19T21:30:09;0.22;;;0.17;;
48088;SDS011;33867;50.314;7.802;2022-08-19T21:33:29;0.20;;;0.20;;
48088;SDS011;33867;50.314;7.802;2022-08-19T21:36:49;0.20;;;0.20;;
48088;SDS011;33867;50.314;7.802;2022-08-19T21:40:08;0.73;;;0.43;;
48088;SDS011;33867;50.314;7.802;2022-08-19T21:43:28;0.20;;;0.20;;
48088;SDS011;33867;50.314;7.802;2022-08-19T21:46:48;0.10;;;0.10;;
48088;SDS011;33867;50.314;7.802;2022-08-19T21:50:08;0.10;;;0.10;;
48088;SDS011;33867;50.314;7.802;2022-08-19T23:46:07;0.00;;;0.00;;
48088;SDS011;33867;50.314;7.802;2022-08-19T23:49:27;0.00;;;0.00;;
48088;SDS011;33867;50.314;7.802;2022-08-19T23:52:48;0.10;;;0.10;;
48088;SDS011;33867;50.314;7.802;2022-08-19T23:56:10;0.10;;;0.10;;
48088;SDS011;33867;50.314;7.802;2022-08-19T23:59:30;0.10;;;0.10;;
